createdAt,value
2017-06-20T00:01:25.687Z,74.40
2017-06-20T00:03:54.077Z,74.70
2017-06-20T00:06:35.548Z,74.70
2017-06-20T00:09:13.294Z,75.10
2017-06-20T00:11:43.933Z,75.60
2017-06-20T00:14:12.864Z,75.20
2017-06-20T00:16:51.738Z,75.70
2017-06-20T00:19:20.474Z,75.70
2017-06-20T00:21:50.197Z,75.90
2017-06-20T00:24:18.590Z,75.90
2017-06-20T00:26:46.964Z,76.20
2017-06-20T00:29:15.354Z,76.40
2017-06-20T00:31:43.744Z,75.20
2017-06-20T00:34:12.149Z,75.70
2017-06-20T00:36:40.540Z,75.80
2017-06-20T00:39:08.930Z,76.00
2017-06-20T00:41:37.315Z,76.10
2017-06-20T00:44:06.472Z,76.00
2017-06-20T00:46:34.904Z,75.90
2017-06-20T00:49:04.058Z,75.90
2017-06-20T00:51:32.447Z,75.90
2017-06-20T00:54:00.851Z,75.90
2017-06-20T00:56:30.006Z,76.10
2017-06-20T00:58:58.410Z,76.00
2017-06-20T01:01:26.795Z,76.10
2017-06-20T01:03:56.043Z,76.40
2017-06-20T01:06:24.451Z,76.30
2017-06-20T01:08:52.837Z,76.20
2017-06-20T01:11:21.280Z,76.50
2017-06-20T01:13:49.663Z,76.20
2017-06-20T01:16:18.050Z,76.50
2017-06-20T01:18:46.456Z,76.30
2017-06-20T01:21:14.843Z,76.60
2017-06-20T01:23:44.067Z,76.60
2017-06-20T01:26:12.475Z,76.60
2017-06-20T01:28:40.872Z,76.40
2017-06-20T01:31:09.269Z,76.30
2017-06-20T01:33:37.655Z,75.80
2017-06-20T01:36:06.853Z,75.30
2017-06-20T01:38:36.013Z,75.00
2017-06-20T01:41:04.415Z,75.00
2017-06-20T01:43:32.821Z,76.80
2017-06-20T01:46:01.210Z,76.50
2017-06-20T01:48:29.629Z,75.70
2017-06-20T01:50:58.003Z,75.70
2017-06-20T01:53:26.393Z,75.60
2017-06-20T01:55:54.091Z,75.50
2017-06-20T01:58:23.264Z,75.60
2017-06-20T02:00:50.970Z,75.50
2017-06-20T02:03:19.388Z,76.00
2017-06-20T02:05:47.768Z,76.10
2017-06-20T02:08:16.175Z,76.00
2017-06-20T02:10:43.905Z,76.80
2017-06-20T02:13:12.320Z,77.60
2017-06-20T02:15:41.474Z,78.40
2017-06-20T02:18:09.848Z,78.30
2017-06-20T02:20:38.238Z,78.50
2017-06-20T02:23:06.615Z,79.50
2017-06-20T02:25:35.026Z,79.70
2017-06-20T02:28:03.829Z,80.10
2017-06-20T02:30:31.878Z,80.00
2017-06-20T02:33:01.054Z,79.80
2017-06-20T02:35:29.498Z,79.60
2017-06-20T02:37:57.937Z,79.40
2017-06-20T02:40:26.341Z,79.50
2017-06-20T02:42:54.732Z,79.60
2017-06-20T02:45:23.149Z,79.40
2017-06-20T02:47:51.547Z,78.90
2017-06-20T02:50:20.722Z,78.70
2017-06-20T02:52:49.125Z,78.70
2017-06-20T02:55:18.270Z,78.80
2017-06-20T02:57:46.668Z,78.80
2017-06-20T03:00:15.060Z,78.70
2017-06-20T03:02:43.493Z,78.80
2017-06-20T03:05:11.883Z,79.10
2017-06-20T03:07:40.270Z,79.10
2017-06-20T03:10:08.736Z,79.60
2017-06-20T03:12:37.704Z,79.40
2017-06-20T03:15:06.174Z,79.40
2017-06-20T03:17:35.314Z,79.80
2017-06-20T03:20:03.690Z,79.80
2017-06-20T03:22:32.080Z,80.20
2017-06-20T03:25:00.451Z,80.00
2017-06-20T03:27:28.860Z,79.80
2017-06-20T03:29:57.261Z,79.70
2017-06-20T03:32:26.415Z,80.00
2017-06-20T03:34:54.807Z,80.00
2017-06-20T03:37:23.181Z,80.00
2017-06-20T03:39:51.569Z,79.80
2017-06-20T03:42:19.990Z,79.60
2017-06-20T03:44:48.377Z,79.80
2017-06-20T03:47:16.828Z,79.80
2017-06-20T03:49:45.218Z,79.50
2017-06-20T03:52:13.711Z,79.60
2017-06-20T03:54:42.119Z,79.60
2017-06-20T03:57:10.505Z,79.40
2017-06-20T03:59:38.912Z,79.30
2017-06-20T04:02:08.050Z,78.60
2017-06-20T04:04:36.463Z,78.50
2017-06-20T04:07:04.858Z,78.80
2017-06-20T04:09:33.264Z,78.90
2017-06-20T04:12:01.677Z,78.80
2017-06-20T04:14:30.081Z,78.30
2017-06-20T04:16:58.476Z,77.80
2017-06-20T04:19:27.662Z,76.50
2017-06-20T04:21:56.213Z,76.20
2017-06-20T04:24:24.629Z,76.20
2017-06-20T04:26:53.861Z,75.20
2017-06-20T04:29:22.271Z,75.00
2017-06-20T04:31:50.684Z,74.60
2017-06-20T04:34:19.844Z,73.90
2017-06-20T04:36:48.248Z,73.80
2017-06-20T04:39:16.639Z,73.50
2017-06-20T04:41:45.802Z,73.00
2017-06-20T04:44:14.196Z,72.80
2017-06-20T04:46:42.587Z,73.50
2017-06-20T04:49:11.774Z,73.00
2017-06-20T04:51:40.162Z,73.00
2017-06-20T04:54:09.347Z,71.30
2017-06-20T04:56:37.735Z,71.90
2017-06-20T04:59:06.888Z,71.40
2017-06-20T05:01:35.304Z,71.20
2017-06-20T05:04:04.462Z,70.50
2017-06-20T05:06:32.882Z,70.50
2017-06-20T05:09:02.038Z,70.20
2017-06-20T05:11:30.529Z,69.50
2017-06-20T05:13:58.944Z,69.50
2017-06-20T05:16:28.106Z,68.80
2017-06-20T05:18:56.511Z,68.60
2017-06-20T05:21:25.666Z,67.70
2017-06-20T05:23:54.053Z,67.70
2017-06-20T05:26:22.456Z,68.20
2017-06-20T05:28:50.861Z,67.50
2017-06-20T05:31:19.296Z,67.90
2017-06-20T05:33:47.685Z,67.70
2017-06-20T05:36:16.059Z,68.00
2017-06-20T05:38:44.465Z,67.10
2017-06-20T05:41:12.853Z,67.30
2017-06-20T05:43:41.245Z,66.80
2017-06-20T05:46:09.633Z,66.00
2017-06-20T05:48:38.020Z,66.70
2017-06-20T05:51:06.415Z,67.00
2017-06-20T05:53:34.800Z,66.20
2017-06-20T05:56:03.204Z,66.60
2017-06-20T05:58:32.354Z,65.20
2017-06-20T06:01:00.748Z,65.20
2017-06-20T06:03:29.187Z,65.90
2017-06-20T06:05:57.602Z,65.20
2017-06-20T06:08:26.004Z,64.60
2017-06-20T06:10:54.431Z,65.00
2017-06-20T06:13:22.828Z,64.00
2017-06-20T06:15:51.234Z,63.30
2017-06-20T06:18:20.412Z,63.70
2017-06-20T06:20:48.853Z,63.80
2017-06-20T06:23:17.265Z,63.80
2017-06-20T06:25:45.644Z,61.20
2017-06-20T06:28:14.077Z,63.10
2017-06-20T06:30:43.234Z,63.30
2017-06-20T06:33:11.639Z,63.20
2017-06-20T06:35:40.824Z,59.70
2017-06-20T06:38:09.226Z,59.60
2017-06-20T06:40:37.631Z,60.60
2017-06-20T06:43:06.022Z,60.20
2017-06-20T06:45:34.439Z,58.90
2017-06-20T06:48:03.617Z,57.00
2017-06-20T06:50:32.016Z,56.90
2017-06-20T06:53:01.228Z,57.00
2017-06-20T06:55:30.382Z,58.20
2017-06-20T06:57:58.790Z,58.20
2017-06-20T07:00:27.957Z,58.10
2017-06-20T07:02:56.359Z,58.10
2017-06-20T07:05:24.764Z,58.90
2017-06-20T07:07:53.158Z,59.40
2017-06-20T07:10:21.726Z,57.80
2017-06-20T07:12:50.159Z,59.40
2017-06-20T07:15:18.539Z,59.80
2017-06-20T07:17:46.941Z,59.10
2017-06-20T07:20:16.126Z,57.00
2017-06-20T07:22:44.599Z,56.90
2017-06-20T07:25:12.981Z,56.70
2017-06-20T07:27:41.384Z,56.90
2017-06-20T07:30:10.561Z,56.30
2017-06-20T07:32:39.737Z,56.00
2017-06-20T07:35:08.151Z,55.90
2017-06-20T07:37:37.297Z,56.30
2017-06-20T07:40:05.686Z,56.30
2017-06-20T07:42:34.090Z,55.50
2017-06-20T07:45:02.526Z,54.10
2017-06-20T07:47:30.932Z,54.50
2017-06-20T07:49:59.331Z,54.40
2017-06-20T07:52:28.621Z,53.50
2017-06-20T07:54:57.050Z,53.40
2017-06-20T07:57:25.584Z,53.90
2017-06-20T07:59:54.256Z,54.80
2017-06-20T08:02:22.691Z,54.80
2017-06-20T08:04:51.093Z,52.20
2017-06-20T08:07:19.492Z,53.80
2017-06-20T08:09:47.889Z,53.10
2017-06-20T08:12:17.085Z,51.00
2017-06-20T08:14:45.515Z,50.90
2017-06-20T08:17:13.908Z,53.40
2017-06-20T08:19:42.314Z,54.70
2017-06-20T08:22:13.013Z,55.30
2017-06-20T08:24:41.421Z,52.30
2017-06-20T08:27:09.817Z,52.20
2017-06-20T08:29:38.211Z,52.20
2017-06-20T08:32:06.604Z,55.10
2017-06-20T08:34:35.005Z,53.40
2017-06-20T08:37:08.945Z,51.80
2017-06-20T08:39:37.337Z,50.90
2017-06-20T08:42:06.489Z,47.50
2017-06-20T08:44:34.909Z,47.40
2017-06-20T08:47:04.062Z,45.70
2017-06-20T08:49:32.481Z,45.50
2017-06-20T08:52:00.910Z,43.50
2017-06-20T08:54:28.944Z,46.90
2017-06-20T08:56:57.349Z,49.10
2017-06-20T08:59:25.755Z,50.20
2017-06-20T09:01:54.177Z,48.90
2017-06-20T09:04:22.600Z,49.90
2017-06-20T09:06:50.985Z,51.20
2017-06-20T09:09:19.389Z,51.50
2017-06-20T09:11:47.777Z,51.80
2017-06-20T09:14:16.205Z,53.30
2017-06-20T09:16:44.601Z,55.00
2017-06-20T09:19:12.989Z,54.30
2017-06-20T09:21:41.380Z,53.30
2017-06-20T09:24:09.766Z,54.50
2017-06-20T09:26:38.961Z,50.00
2017-06-20T09:29:08.123Z,49.10
2017-06-20T09:31:36.513Z,49.00
2017-06-20T09:34:04.914Z,49.80
2017-06-20T09:36:34.084Z,50.10
2017-06-20T09:39:02.505Z,50.00
2017-06-20T09:41:31.656Z,47.30
2017-06-20T09:44:00.063Z,47.10
2017-06-20T09:46:28.918Z,45.30
2017-06-20T09:48:57.314Z,47.90
2017-06-20T09:51:25.724Z,46.50
2017-06-20T09:53:54.717Z,48.90
2017-06-20T09:56:23.878Z,51.10
2017-06-20T09:58:52.286Z,50.60
2017-06-20T10:01:21.455Z,50.60
2017-06-20T10:03:49.871Z,50.60
2017-06-20T10:06:18.275Z,51.20
2017-06-20T10:08:46.673Z,52.50
2017-06-20T10:11:15.134Z,51.10
2017-06-20T10:13:43.528Z,51.00
2017-06-20T10:16:11.927Z,52.00
2017-06-20T10:18:40.332Z,51.30
2017-06-20T10:21:09.490Z,51.30
2017-06-20T10:23:37.905Z,51.30
2017-06-20T10:26:07.061Z,51.30
2017-06-20T10:28:35.458Z,51.30
2017-06-20T10:31:03.868Z,52.30
2017-06-20T10:33:32.259Z,52.20
2017-06-20T10:36:00.672Z,51.90
2017-06-20T10:38:29.054Z,52.00
2017-06-20T10:40:57.504Z,51.30
2017-06-20T10:43:25.905Z,51.40
2017-06-20T10:45:54.302Z,51.10
2017-06-20T10:48:22.712Z,50.10
2017-06-20T10:50:51.105Z,48.20
2017-06-20T10:53:19.598Z,50.80
2017-06-20T10:55:48.017Z,48.90
2017-06-20T10:58:16.414Z,50.60
2017-06-20T11:00:45.618Z,47.40
2017-06-20T11:03:14.785Z,44.80
2017-06-20T11:05:43.177Z,44.80
2017-06-20T11:08:11.611Z,46.30
2017-06-20T11:10:39.999Z,47.20
2017-06-20T11:13:08.402Z,43.30
2017-06-20T11:15:36.787Z,43.70
2017-06-20T11:18:05.182Z,46.80
2017-06-20T11:20:34.367Z,48.70
2017-06-20T11:23:02.757Z,48.70
2017-06-20T11:25:31.934Z,45.90
2017-06-20T11:28:00.328Z,45.60
2017-06-20T11:30:29.507Z,44.90
2017-06-20T11:32:57.926Z,44.80
2017-06-20T11:35:29.181Z,45.50
2017-06-20T11:37:57.623Z,43.40
2017-06-20T11:40:26.807Z,43.40
2017-06-20T11:42:55.193Z,43.40
2017-06-20T11:45:24.402Z,42.30
2017-06-20T11:47:53.591Z,39.00
2017-06-20T11:50:22.760Z,43.00
2017-06-20T11:52:51.153Z,43.10
2017-06-20T11:55:19.601Z,45.40
2017-06-20T11:57:47.998Z,42.70
2017-06-20T12:00:16.378Z,44.40
2017-06-20T12:02:44.822Z,44.10
2017-06-20T12:05:13.217Z,42.90
2017-06-20T12:07:41.606Z,41.80
2017-06-20T12:10:10.006Z,42.80
2017-06-20T12:12:38.401Z,39.30
2017-06-20T12:15:06.815Z,41.80
2017-06-20T12:17:35.208Z,41.90
2017-06-20T12:20:03.616Z,41.80
2017-06-20T12:22:32.036Z,41.80
2017-06-20T12:25:00.432Z,42.50
2017-06-20T12:27:28.867Z,40.90
2017-06-20T12:29:57.288Z,42.50
2017-06-20T12:32:25.681Z,38.30
2017-06-20T12:34:54.085Z,38.40
2017-06-20T12:37:22.477Z,41.70
2017-06-20T12:39:50.909Z,41.90
2017-06-20T12:42:19.301Z,40.80
2017-06-20T12:44:47.673Z,37.20
2017-06-20T12:47:16.078Z,39.80
2017-06-20T12:49:44.453Z,42.90
2017-06-20T12:52:12.871Z,43.00
2017-06-20T12:54:41.270Z,45.90
2017-06-20T12:57:11.898Z,46.10
2017-06-20T12:59:40.407Z,45.00
2017-06-20T13:02:08.804Z,44.10
2017-06-20T13:04:37.985Z,47.30
2017-06-20T13:07:06.384Z,46.70
2017-06-20T13:09:35.546Z,44.90
2017-06-20T13:12:03.964Z,44.90
2017-06-20T13:14:32.392Z,45.50
2017-06-20T13:17:00.832Z,45.00
2017-06-20T13:19:29.262Z,43.20
2017-06-20T13:21:58.631Z,43.50
2017-06-20T13:24:27.024Z,44.30
2017-06-20T13:26:55.484Z,44.10
2017-06-20T13:29:23.892Z,45.90
2017-06-20T13:31:52.294Z,43.40
2017-06-20T13:34:20.698Z,43.50
2017-06-20T13:36:49.898Z,44.90
2017-06-20T13:39:18.302Z,44.80
2017-06-20T13:41:46.737Z,45.30
2017-06-20T13:44:15.125Z,45.60
2017-06-20T13:46:44.309Z,45.80
2017-06-20T13:49:12.715Z,45.80
2017-06-20T13:51:41.114Z,46.30
2017-06-20T13:54:09.568Z,46.30
2017-06-20T13:56:38.725Z,44.30
2017-06-20T13:59:07.128Z,44.30
2017-06-20T14:01:36.297Z,45.60
2017-06-20T14:04:04.686Z,45.50
2017-06-20T14:06:33.105Z,44.30
2017-06-20T14:09:01.497Z,45.10
2017-06-20T14:11:29.894Z,44.90
2017-06-20T14:13:58.339Z,45.70
2017-06-20T14:16:26.741Z,46.50
2017-06-20T14:18:55.156Z,46.20
2017-06-20T14:21:26.622Z,46.10
2017-06-20T14:23:55.089Z,46.80
2017-06-20T14:26:23.494Z,45.60
2017-06-20T14:28:52.670Z,45.80
2017-06-20T14:31:21.069Z,45.70
2017-06-20T14:33:49.479Z,45.00
2017-06-20T14:36:17.889Z,45.90
2017-06-20T14:38:46.278Z,45.50
2017-06-20T14:41:14.694Z,44.80
2017-06-20T14:43:43.101Z,44.50
2017-06-20T14:46:11.580Z,46.10
2017-06-20T14:48:40.000Z,45.40
2017-06-20T14:51:08.390Z,44.40
2017-06-20T14:53:37.558Z,47.00
2017-06-20T14:56:05.965Z,46.90
2017-06-20T14:58:35.143Z,45.70
2017-06-20T15:01:04.108Z,45.60
2017-06-20T15:03:32.343Z,45.90
2017-06-20T15:06:00.731Z,46.80
2017-06-20T15:08:29.141Z,46.10
2017-06-20T15:10:57.545Z,46.50
2017-06-20T15:13:26.732Z,45.90
2017-06-20T15:15:55.118Z,45.90
2017-06-20T15:18:23.623Z,44.90
2017-06-20T15:20:52.050Z,45.40
2017-06-20T15:23:20.437Z,46.10
2017-06-20T15:25:48.857Z,46.10
2017-06-20T15:28:17.261Z,45.80
2017-06-20T15:30:45.666Z,45.80
2017-06-20T15:33:14.141Z,45.10
2017-06-20T15:35:42.533Z,44.80
2017-06-20T15:38:10.937Z,45.80
2017-06-20T15:40:40.093Z,44.90
2017-06-20T15:43:08.484Z,44.90
2017-06-20T15:45:36.932Z,44.10
2017-06-20T15:48:05.473Z,43.40
2017-06-20T15:50:34.669Z,45.10
2017-06-20T15:53:03.842Z,44.50
2017-06-20T15:55:32.231Z,44.50
2017-06-20T15:58:00.632Z,43.30
2017-06-20T16:00:29.606Z,43.90
2017-06-20T16:02:58.007Z,43.90
2017-06-20T16:05:26.409Z,43.80
2017-06-20T16:07:54.979Z,43.90
2017-06-20T16:10:23.398Z,44.40
2017-06-20T16:12:51.809Z,44.80
2017-06-20T16:15:20.977Z,44.60
2017-06-20T16:17:49.366Z,45.20
2017-06-20T16:20:17.786Z,45.10
2017-06-20T16:22:46.229Z,44.80
2017-06-20T16:25:14.634Z,44.10
2017-06-20T16:27:43.824Z,45.00
2017-06-20T16:30:12.980Z,45.30
2017-06-20T16:32:41.368Z,45.30
2017-06-20T16:35:09.773Z,45.70
2017-06-20T16:37:38.952Z,44.60
2017-06-20T16:40:07.359Z,44.60
2017-06-20T16:42:35.768Z,44.70
2017-06-20T16:45:04.193Z,44.70
2017-06-20T16:47:32.735Z,44.90
2017-06-20T16:50:01.206Z,45.00
2017-06-20T16:52:29.652Z,44.40
2017-06-20T16:54:58.126Z,44.90
2017-06-20T16:57:27.280Z,46.40
2017-06-20T16:59:55.690Z,46.40
2017-06-20T17:02:24.163Z,45.70
2017-06-20T17:04:52.688Z,45.50
2017-06-20T17:07:21.257Z,46.60
2017-06-20T17:09:49.696Z,45.30
2017-06-20T17:12:18.117Z,45.90
2017-06-20T17:14:46.522Z,46.20
2017-06-20T17:17:14.925Z,46.20
2017-06-20T17:19:44.088Z,46.60
2017-06-20T17:22:12.488Z,46.60
2017-06-20T17:24:41.735Z,46.50
2017-06-20T17:27:10.118Z,46.50
2017-06-20T17:29:38.523Z,47.10
2017-06-20T17:32:06.926Z,47.40
2017-06-20T17:34:36.098Z,48.30
2017-06-20T17:37:04.514Z,48.30
2017-06-20T17:39:33.656Z,48.80
2017-06-20T17:42:02.068Z,48.80
2017-06-20T17:44:31.222Z,49.00
2017-06-20T17:46:59.616Z,48.30
2017-06-20T17:49:28.030Z,48.50
2017-06-20T17:51:57.207Z,49.50
2017-06-20T17:54:25.634Z,49.40
2017-06-20T17:56:54.030Z,49.30
2017-06-20T17:59:22.433Z,49.70
2017-06-20T18:01:50.854Z,50.00
2017-06-20T18:04:19.242Z,50.10
2017-06-20T18:06:47.660Z,51.20
2017-06-20T18:09:16.113Z,51.40
2017-06-20T18:11:45.620Z,52.40
2017-06-20T18:14:14.029Z,53.10
2017-06-20T18:16:42.419Z,53.50
2017-06-20T18:19:10.822Z,54.60
2017-06-20T18:21:39.976Z,56.20
2017-06-20T18:24:08.389Z,56.00
2017-06-20T18:26:37.581Z,57.20
2017-06-20T18:29:06.743Z,57.90
2017-06-20T18:31:35.273Z,57.80
2017-06-20T18:34:04.437Z,58.90
2017-06-20T18:36:32.840Z,59.40
2017-06-20T18:39:02.041Z,60.00
2017-06-20T18:41:31.230Z,60.70
2017-06-20T18:44:00.424Z,61.20
2017-06-20T18:46:29.598Z,61.40
2017-06-20T18:48:58.103Z,61.30
2017-06-20T18:51:27.302Z,61.70
2017-06-20T18:53:56.583Z,62.00
2017-06-20T18:56:25.000Z,61.80
2017-06-20T18:58:53.378Z,62.10
2017-06-20T19:01:21.777Z,62.10
2017-06-20T19:03:50.217Z,62.40
2017-06-20T19:06:19.385Z,62.80
2017-06-20T19:08:49.437Z,62.70
2017-06-20T19:11:18.590Z,62.90
2017-06-20T19:13:46.981Z,62.80
2017-06-20T19:16:15.384Z,63.60
2017-06-20T19:18:43.799Z,63.90
2017-06-20T19:21:12.217Z,63.50
2017-06-20T19:23:40.651Z,63.80
2017-06-20T19:26:09.046Z,64.90
2017-06-20T19:28:37.449Z,64.50
2017-06-20T19:31:05.884Z,64.70
2017-06-20T19:33:34.327Z,64.90
2017-06-20T19:36:02.732Z,65.40
2017-06-20T19:38:31.143Z,65.80
2017-06-20T19:40:59.544Z,65.70
2017-06-20T19:43:28.022Z,66.10
2017-06-20T19:45:56.462Z,66.70
2017-06-20T19:48:24.866Z,66.70
2017-06-20T19:50:53.283Z,67.30
2017-06-20T19:53:21.705Z,67.50
2017-06-20T19:55:50.105Z,67.80
2017-06-20T19:58:18.527Z,68.20
2017-06-20T20:00:46.959Z,68.20
2017-06-20T20:03:15.417Z,68.50
2017-06-20T20:05:43.866Z,68.90
2017-06-20T20:08:12.317Z,69.20
2017-06-20T20:10:40.745Z,69.10
2017-06-20T20:13:09.947Z,69.40
2017-06-20T20:15:38.385Z,69.30
2017-06-20T20:18:06.838Z,69.30
2017-06-20T20:20:35.250Z,68.80
2017-06-20T20:23:03.649Z,68.60
2017-06-20T20:25:32.975Z,68.50
2017-06-20T20:28:02.148Z,69.10
2017-06-20T20:30:30.596Z,69.10
2017-06-20T20:32:59.022Z,69.20
2017-06-20T20:35:28.200Z,69.90
2017-06-20T20:37:56.622Z,69.60
2017-06-20T20:40:25.024Z,69.50
2017-06-20T20:42:53.717Z,69.60
2017-06-20T20:45:22.121Z,69.90
2017-06-20T20:47:50.675Z,69.60
2017-06-20T20:50:19.105Z,70.40
2017-06-20T20:52:48.440Z,70.00
2017-06-20T20:55:16.919Z,70.00
2017-06-20T20:57:45.359Z,71.00
2017-06-20T21:00:14.559Z,70.90
2017-06-20T21:02:43.737Z,70.60
2017-06-20T21:05:12.177Z,70.60
2017-06-20T21:07:40.658Z,70.40
2017-06-20T21:10:09.062Z,70.70
2017-06-20T21:12:37.461Z,70.80
2017-06-20T21:15:05.872Z,71.20
2017-06-20T21:17:34.274Z,71.40
2017-06-20T21:20:03.923Z,71.40
2017-06-20T21:22:32.331Z,71.80
2017-06-20T21:25:00.738Z,71.90
2017-06-20T21:27:29.164Z,72.30
2017-06-20T21:29:57.566Z,73.00
2017-06-20T21:32:26.010Z,73.00
2017-06-20T21:34:54.410Z,73.10
2017-06-20T21:37:23.569Z,73.30
2017-06-20T21:39:51.972Z,73.20
2017-06-20T21:42:20.357Z,73.90
2017-06-20T21:44:48.781Z,73.90
2017-06-20T21:47:17.168Z,73.80
2017-06-20T21:49:45.546Z,73.80
2017-06-20T21:52:13.956Z,73.90
2017-06-20T21:54:42.337Z,74.00
2017-06-20T21:57:11.537Z,75.70
2017-06-20T21:59:40.700Z,75.60
2017-06-20T22:02:09.095Z,75.10
2017-06-20T22:04:37.502Z,75.50
2017-06-20T22:07:05.890Z,75.50
2017-06-20T22:09:34.298Z,75.40
2017-06-20T22:12:02.691Z,75.70
2017-06-20T22:14:31.071Z,75.80
2017-06-20T22:16:59.478Z,77.50
2017-06-20T22:19:27.853Z,78.10
2017-06-20T22:21:57.034Z,78.70
2017-06-20T22:24:25.436Z,78.70
2017-06-20T22:26:54.611Z,77.70
2017-06-20T22:29:23.013Z,77.60
2017-06-20T22:31:51.421Z,77.90
2017-06-20T22:34:19.853Z,77.60
2017-06-20T22:36:48.245Z,77.80
2017-06-20T22:39:17.398Z,78.00
2017-06-20T22:41:45.801Z,78.00
2017-06-20T22:44:14.189Z,78.00
2017-06-20T22:46:42.607Z,78.30
2017-06-20T22:49:10.998Z,78.80
2017-06-20T22:51:39.374Z,78.50
2017-06-20T22:54:07.776Z,80.00
2017-06-20T22:56:36.215Z,79.70
2017-06-20T22:59:04.634Z,80.20
2017-06-20T23:01:33.020Z,79.60
2017-06-20T23:04:01.404Z,81.10
2017-06-20T23:06:29.822Z,80.70
2017-06-20T23:08:58.288Z,80.80
2017-06-20T23:11:27.476Z,80.70
2017-06-20T23:13:56.630Z,81.20
2017-06-20T23:16:25.097Z,80.50
2017-06-20T23:18:53.512Z,80.70
2017-06-20T23:21:21.903Z,80.90
2017-06-20T23:23:50.341Z,80.90
2017-06-20T23:26:18.727Z,80.90
2017-06-20T23:28:47.124Z,81.10
2017-06-20T23:31:15.525Z,81.10
2017-06-20T23:33:43.944Z,81.20
2017-06-20T23:36:12.359Z,81.50
2017-06-20T23:38:40.759Z,81.50
2017-06-20T23:41:09.156Z,81.60
2017-06-20T23:43:37.573Z,81.90
2017-06-20T23:46:05.962Z,81.70
2017-06-20T23:48:34.380Z,81.80
2017-06-20T23:51:02.770Z,82.30
2017-06-20T23:53:31.170Z,82.30
2017-06-20T23:55:59.580Z,82.30
2017-06-20T23:58:27.969Z,82.20
